Urbana, Illinois
Current Conditions -  °F | °C
As of 10:53 PM on Tuesday 25 Nov 2014 (Local Time) from KCMI Reporting Station
Clear Clear  
Wind Chill: 12°   Ceiling: Unl
Heat Index: 21°   Visibility: 9mi
Dew Point: 19°   Wind: 7mph
Humidity: 92%   Direction: 110°ESE
Pressure: 30.18"   Gusts: NA
Location:  40.12°N, 88.2°W
Report Text: KCMI 260453Z 11006KT 9SM CLR M06/M07 A3018 RMK AO2 SLP233 I1000 T10611072 $
Loading
Personal Weather Stations






























Interactive Weather Map New forecast layout! Learn more

10-Day Weather Forecast

Advertisements
Track Severe Weather on mobile